createdAt,value
2022-08-01T00:00:16.490Z,9
2022-08-01T00:01:16.490Z,10
2022-08-01T00:02:16.491Z,9
2022-08-01T00:03:16.514Z,10
2022-08-01T00:04:16.514Z,11
2022-08-01T00:05:16.515Z,11
2022-08-01T00:06:16.515Z,11
2022-08-01T00:07:16.515Z,12
2022-08-01T00:08:16.516Z,12
2022-08-01T00:09:16.581Z,10
2022-08-01T00:10:16.517Z,11
2022-08-01T00:11:16.517Z,13
2022-08-01T00:12:16.519Z,12
2022-08-01T00:13:16.496Z,15
2022-08-01T00:14:16.496Z,15
2022-08-01T00:15:16.497Z,15
2022-08-01T00:16:16.608Z,17
2022-08-01T00:17:16.498Z,15
2022-08-01T00:18:16.521Z,17
2022-08-01T00:19:16.521Z,17
2022-08-01T00:20:16.522Z,16
2022-08-01T00:21:16.522Z,15
2022-08-01T00:22:16.523Z,14
2022-08-01T00:23:16.523Z,14
2022-08-01T00:24:16.548Z,15
2022-08-01T00:25:16.524Z,16
2022-08-01T00:26:16.525Z,12
2022-08-01T00:27:16.525Z,12
2022-08-01T00:28:16.503Z,12
2022-08-01T00:29:16.504Z,12
2022-08-01T00:30:16.504Z,11
2022-08-01T00:31:16.504Z,12
2022-08-01T00:32:16.505Z,9
2022-08-01T00:33:16.505Z,10
2022-08-01T00:34:16.528Z,10
2022-08-01T00:35:16.529Z,8
2022-08-01T00:36:16.529Z,10
2022-08-01T00:37:16.530Z,8
2022-08-01T00:38:16.530Z,10
2022-08-01T00:39:16.531Z,8
2022-08-01T00:40:16.531Z,9
2022-08-01T00:41:16.532Z,10
2022-08-01T00:42:16.532Z,10
2022-08-01T00:43:16.510Z,11
2022-08-01T00:44:16.511Z,10
2022-08-01T00:45:16.511Z,10
2022-08-01T00:46:16.511Z,9
2022-08-01T00:47:16.512Z,11
2022-08-01T00:48:16.512Z,12
2022-08-01T00:49:16.535Z,13
2022-08-01T00:50:16.536Z,12
2022-08-01T00:51:16.536Z,13
2022-08-01T00:52:16.537Z,12
2022-08-01T00:53:16.537Z,10
2022-08-01T00:54:16.538Z,10
2022-08-01T00:55:16.538Z,9
2022-08-01T00:56:16.539Z,7
2022-08-01T00:57:16.539Z,7
2022-08-01T00:58:16.517Z,9
2022-08-01T00:59:16.518Z,9
2022-08-01T01:00:16.518Z,8
2022-08-01T01:01:16.519Z,4
2022-08-01T01:02:16.519Z,3
2022-08-01T01:03:16.519Z,3
2022-08-01T01:04:16.542Z,3
2022-08-01T01:05:16.543Z,6
2022-08-01T01:06:16.543Z,3
2022-08-01T01:07:16.544Z,3
2022-08-01T01:08:16.544Z,4
2022-08-01T01:09:16.545Z,4
2022-08-01T01:10:16.610Z,3
2022-08-01T01:11:16.546Z,3
2022-08-01T01:12:16.546Z,3
2022-08-01T01:13:16.547Z,3
2022-08-01T01:14:16.524Z,3
2022-08-01T01:15:16.525Z,5
2022-08-01T01:16:28.202Z,5
2022-08-01T01:17:16.526Z,5
2022-08-01T01:18:16.526Z,7
2022-08-01T01:19:16.549Z,8
2022-08-01T01:20:16.549Z,8
2022-08-01T01:21:16.550Z,9
2022-08-01T01:22:16.551Z,10
2022-08-01T01:23:16.551Z,10
2022-08-01T01:24:16.551Z,9
2022-08-01T01:25:16.552Z,9
2022-08-01T01:26:16.552Z,9
2022-08-01T01:27:16.553Z,9
2022-08-01T01:28:16.618Z,9
2022-08-01T01:29:16.531Z,9
2022-08-01T01:30:16.532Z,10
2022-08-01T01:31:16.554Z,9
2022-08-01T01:32:16.533Z,12
2022-08-01T01:33:16.533Z,12
2022-08-01T01:34:16.566Z,11
2022-08-01T01:35:16.556Z,11
2022-08-01T01:36:16.557Z,11
2022-08-01T01:37:16.573Z,11
2022-08-01T01:38:16.558Z,13
2022-08-01T01:39:16.558Z,12
2022-08-01T01:40:16.559Z,10
2022-08-01T01:41:16.559Z,12
2022-08-01T01:42:16.560Z,11
2022-08-01T01:43:16.560Z,12
2022-08-01T01:44:16.538Z,15
2022-08-01T01:45:16.538Z,14
2022-08-01T01:46:16.539Z,15
2022-08-01T01:47:16.539Z,15
2022-08-01T01:48:16.540Z,14
2022-08-01T01:49:16.540Z,17
2022-08-01T01:50:16.563Z,15
2022-08-01T01:51:16.563Z,14
2022-08-01T01:52:16.564Z,14
2022-08-01T01:53:16.565Z,14
2022-08-01T01:54:16.565Z,12
2022-08-01T01:55:16.566Z,12
2022-08-01T01:56:16.566Z,11
2022-08-01T01:57:16.566Z,11
2022-08-01T01:58:16.567Z,10
2022-08-01T01:59:16.545Z,10
2022-08-01T02:00:16.545Z,9
2022-08-01T02:01:16.546Z,8
2022-08-01T02:02:16.546Z,8
2022-08-01T02:03:16.547Z,7
2022-08-01T02:04:16.547Z,9
2022-08-01T02:05:16.570Z,9
2022-08-01T02:06:16.570Z,9
2022-08-01T02:07:16.571Z,8
2022-08-01T02:08:16.571Z,9
2022-08-01T02:09:16.572Z,10
2022-08-01T02:10:16.572Z,11
2022-08-01T02:11:16.573Z,10
2022-08-01T02:12:16.573Z,10
2022-08-01T02:13:16.574Z,11
2022-08-01T02:14:16.639Z,13
2022-08-01T02:15:16.552Z,15
2022-08-01T02:16:21.669Z,13
2022-08-01T02:17:16.553Z,13
2022-08-01T02:18:16.553Z,13
2022-08-01T02:19:16.554Z,15
2022-08-01T02:20:16.577Z,14
2022-08-01T02:21:16.577Z,14
2022-08-01T02:22:16.578Z,12
2022-08-01T02:23:16.578Z,12
2022-08-01T02:24:16.578Z,12
2022-08-01T02:25:16.579Z,12
2022-08-01T02:26:16.579Z,14
2022-08-01T02:27:16.580Z,11
2022-08-01T02:28:16.580Z,14
2022-08-01T02:29:16.558Z,12
2022-08-01T02:30:16.559Z,10
2022-08-01T02:31:16.559Z,10
2022-08-01T02:32:16.560Z,10
2022-08-01T02:33:16.560Z,10
2022-08-01T02:34:16.561Z,9
2022-08-01T02:35:16.583Z,9
2022-08-01T02:36:16.584Z,9
2022-08-01T02:37:16.584Z,13
2022-08-01T02:38:16.585Z,11
2022-08-01T02:39:16.585Z,11
2022-08-01T02:40:16.586Z,8
2022-08-01T02:41:16.603Z,8
2022-08-01T02:42:16.587Z,7
2022-08-01T02:43:16.587Z,9
2022-08-01T02:44:16.589Z,9
2022-08-01T02:45:16.565Z,10
2022-08-01T02:46:16.566Z,6
2022-08-01T02:47:16.566Z,7
2022-08-01T02:48:16.567Z,5
2022-08-01T02:49:16.567Z,9
2022-08-01T02:50:16.568Z,8
2022-08-01T02:51:16.590Z,7
2022-08-01T02:52:16.591Z,6
2022-08-01T02:53:16.591Z,6
2022-08-01T02:54:16.592Z,9
2022-08-01T02:55:16.593Z,5
2022-08-01T02:56:16.593Z,5
2022-08-01T02:57:16.593Z,5
2022-08-01T02:58:16.594Z,5
2022-08-01T02:59:16.594Z,9
2022-08-01T03:00:16.572Z,11
2022-08-01T03:01:16.573Z,9
2022-08-01T03:02:16.573Z,7
2022-08-01T03:03:16.574Z,7
2022-08-01T03:04:16.574Z,7
2022-08-01T03:05:16.574Z,8
2022-08-01T03:06:16.597Z,8
2022-08-01T03:07:16.598Z,9
2022-08-01T03:08:16.598Z,9
2022-08-01T03:09:16.599Z,9
2022-08-01T03:10:16.599Z,9
2022-08-01T03:11:16.600Z,11
2022-08-01T03:12:16.600Z,17
2022-08-01T03:13:16.601Z,16
2022-08-01T03:14:16.601Z,12
2022-08-01T03:15:16.579Z,12
2022-08-01T03:16:16.579Z,11
2022-08-01T03:17:16.580Z,8
2022-08-01T03:18:16.580Z,13
2022-08-01T03:19:16.581Z,13
2022-08-01T03:20:16.581Z,14
2022-08-01T03:21:16.604Z,15
2022-08-01T03:22:16.604Z,13
2022-08-01T03:23:16.605Z,15
2022-08-01T03:24:16.605Z,13
2022-08-01T03:25:16.606Z,14
2022-08-01T03:26:16.606Z,14
2022-08-01T03:27:16.607Z,14
2022-08-01T03:28:16.607Z,13
2022-08-01T03:29:16.608Z,13
2022-08-01T03:30:16.586Z,14
2022-08-01T03:31:16.586Z,12
2022-08-01T03:32:16.587Z,14
2022-08-01T03:33:16.587Z,8
2022-08-01T03:34:16.587Z,8
2022-08-01T03:35:16.588Z,8
2022-08-01T03:36:16.611Z,8
2022-08-01T03:37:16.611Z,9
2022-08-01T03:39:16.612Z,11
2022-08-01T03:40:16.613Z,10
2022-08-01T03:41:16.613Z,10
2022-08-01T03:42:16.614Z,8
2022-08-01T03:43:16.614Z,8
2022-08-01T03:44:16.614Z,8
2022-08-01T03:45:16.592Z,10
2022-08-01T03:46:16.593Z,8
2022-08-01T03:47:16.593Z,8
2022-08-01T03:48:16.594Z,8
2022-08-01T03:49:16.594Z,10
2022-08-01T03:50:16.595Z,12
2022-08-01T03:51:16.617Z,11
2022-08-01T03:52:16.618Z,11
2022-08-01T03:53:16.618Z,11
2022-08-01T03:54:16.619Z,11
2022-08-01T03:55:16.619Z,11
2022-08-01T03:56:16.620Z,11
2022-08-01T03:57:16.620Z,9
2022-08-01T03:58:16.621Z,10
2022-08-01T03:59:16.621Z,10
2022-08-01T04:00:16.599Z,11
2022-08-01T04:01:16.599Z,10
2022-08-01T04:02:16.600Z,9
2022-08-01T04:03:16.600Z,10
2022-08-01T04:04:16.601Z,11
2022-08-01T04:05:16.601Z,15
2022-08-01T04:06:16.624Z,14
2022-08-01T04:07:16.625Z,13
2022-08-01T04:08:16.625Z,15
2022-08-01T04:09:16.625Z,13
2022-08-01T04:10:16.626Z,10
2022-08-01T04:11:16.626Z,12
2022-08-01T04:12:16.691Z,13
2022-08-01T04:13:16.627Z,11
2022-08-01T04:14:16.628Z,12
2022-08-01T04:15:16.629Z,14
2022-08-01T04:16:16.606Z,12
2022-08-01T04:17:16.607Z,14
2022-08-01T04:18:16.607Z,15
2022-08-01T04:19:16.607Z,13
2022-08-01T04:20:16.608Z,10
2022-08-01T04:21:16.608Z,11
2022-08-01T04:22:16.631Z,10
2022-08-01T04:23:16.631Z,11
2022-08-01T04:24:16.632Z,11
2022-08-01T04:25:16.632Z,11
2022-08-01T04:26:16.633Z,13
2022-08-01T04:27:16.633Z,15
2022-08-01T04:28:16.634Z,14
2022-08-01T04:29:16.634Z,13
2022-08-01T04:30:16.635Z,15
2022-08-01T04:31:16.613Z,17
2022-08-01T04:32:16.613Z,13
2022-08-01T04:33:16.614Z,15
2022-08-01T04:34:16.614Z,13
2022-08-01T04:35:16.615Z,11
2022-08-01T04:36:16.615Z,14
2022-08-01T04:37:16.638Z,12
2022-08-01T04:38:16.638Z,12
2022-08-01T04:39:16.655Z,18
2022-08-01T04:40:16.639Z,17
2022-08-01T04:41:16.640Z,16
2022-08-01T04:42:16.640Z,18
2022-08-01T04:43:16.641Z,20
2022-08-01T04:44:16.641Z,17
2022-08-01T04:45:16.641Z,16
2022-08-01T04:46:16.619Z,15
2022-08-01T04:47:16.620Z,14
2022-08-01T04:48:16.620Z,15
2022-08-01T04:49:16.621Z,16
2022-08-01T04:50:16.621Z,14
2022-08-01T04:51:16.622Z,18
2022-08-01T04:52:16.644Z,19
2022-08-01T04:53:16.645Z,13
2022-08-01T04:54:16.645Z,13
2022-08-01T04:55:16.646Z,12
2022-08-01T04:56:16.646Z,11
2022-08-01T04:57:16.647Z,13
2022-08-01T04:58:16.647Z,14
2022-08-01T04:59:16.648Z,16
2022-08-01T05:00:16.648Z,14
2022-08-01T05:01:16.626Z,14
2022-08-01T05:02:16.626Z,12
2022-08-01T05:03:16.627Z,12
2022-08-01T05:04:16.627Z,9
2022-08-01T05:05:16.628Z,8
2022-08-01T05:06:16.628Z,12
2022-08-01T05:07:16.651Z,11
2022-08-01T05:08:16.651Z,14
2022-08-01T05:09:16.652Z,14
2022-08-01T05:10:16.652Z,14
2022-08-01T05:11:16.653Z,16
2022-08-01T05:12:16.653Z,15
2022-08-01T05:13:16.654Z,15
2022-08-01T05:14:16.654Z,19
2022-08-01T05:15:16.655Z,19
2022-08-01T05:16:16.720Z,22
2022-08-01T05:17:16.633Z,23
2022-08-01T05:18:16.634Z,19
2022-08-01T05:19:16.656Z,19
2022-08-01T05:20:16.634Z,20
2022-08-01T05:21:16.635Z,23
2022-08-01T05:22:16.668Z,25
2022-08-01T05:23:16.658Z,23
2022-08-01T05:24:16.658Z,23
2022-08-01T05:25:16.675Z,26
2022-08-01T05:26:16.659Z,20
2022-08-01T05:27:16.660Z,24
2022-08-01T05:28:16.661Z,24
2022-08-01T05:29:16.661Z,29
2022-08-01T05:30:16.661Z,29
2022-08-01T05:31:16.662Z,24
2022-08-01T05:32:16.640Z,25
2022-08-01T05:33:16.640Z,26
2022-08-01T05:34:16.641Z,28
2022-08-01T05:35:16.641Z,26
2022-08-01T05:36:16.642Z,25
2022-08-01T05:37:16.665Z,30
2022-08-01T05:38:16.665Z,31
2022-08-01T05:39:16.665Z,24
2022-08-01T05:40:16.690Z,28
2022-08-01T05:41:16.666Z,24
2022-08-01T05:42:16.667Z,25
2022-08-01T05:43:16.667Z,24
2022-08-01T05:44:16.668Z,22
2022-08-01T05:45:16.668Z,29
2022-08-01T05:46:16.669Z,28
2022-08-01T05:47:16.647Z,26
2022-08-01T05:48:16.647Z,27
2022-08-01T05:49:16.647Z,35
2022-08-01T05:50:16.648Z,34
2022-08-01T05:51:16.648Z,34
2022-08-01T05:52:16.649Z,39
2022-08-01T05:53:16.672Z,36
2022-08-01T05:54:16.672Z,37
2022-08-01T05:55:16.673Z,32
2022-08-01T05:56:16.673Z,37
2022-08-01T05:57:16.673Z,32
2022-08-01T05:58:16.674Z,37
2022-08-01T05:59:16.674Z,34
2022-08-01T06:00:16.675Z,44
2022-08-01T06:01:16.675Z,32
2022-08-01T06:02:16.653Z,31
2022-08-01T06:03:16.654Z,35
2022-08-01T06:04:16.654Z,36
2022-08-01T06:05:16.655Z,34
2022-08-01T06:06:16.655Z,32
2022-08-01T06:07:16.656Z,39
2022-08-01T06:08:16.678Z,38
2022-08-01T06:09:16.679Z,40
2022-08-01T06:10:16.679Z,36
2022-08-01T06:11:16.680Z,37
2022-08-01T06:12:16.680Z,49
2022-08-01T06:13:16.681Z,42
2022-08-01T06:14:16.681Z,42
2022-08-01T06:15:16.682Z,45
2022-08-01T06:16:16.682Z,38
2022-08-01T06:17:16.707Z,36
2022-08-01T06:18:16.660Z,33
2022-08-01T06:19:16.661Z,40
2022-08-01T06:20:16.661Z,44
2022-08-01T06:21:16.662Z,36
2022-08-01T06:22:16.662Z,38
2022-08-01T06:23:16.686Z,38
2022-08-01T06:24:16.686Z,37
2022-08-01T06:25:16.686Z,31
2022-08-01T06:26:16.695Z,27
2022-08-01T06:27:16.687Z,30
2022-08-01T06:28:16.687Z,25
2022-08-01T06:29:16.688Z,28
2022-08-01T06:30:16.689Z,28
2022-08-01T06:31:16.689Z,35
2022-08-01T06:32:16.689Z,32
2022-08-01T06:33:16.667Z,27
2022-08-01T06:34:16.668Z,27
2022-08-01T06:35:16.668Z,23
2022-08-01T06:36:16.669Z,25
2022-08-01T06:37:16.669Z,26
2022-08-01T06:38:16.670Z,31
2022-08-01T06:39:16.692Z,31
2022-08-01T06:40:16.693Z,34
2022-08-01T06:41:16.702Z,37
2022-08-01T06:42:16.694Z,43
2022-08-01T06:43:16.694Z,33
2022-08-01T06:44:16.695Z,35
2022-08-01T06:45:16.695Z,36
2022-08-01T06:46:16.696Z,35
2022-08-01T06:47:16.696Z,39
2022-08-01T06:48:16.674Z,41
2022-08-01T06:49:16.675Z,36
2022-08-01T06:50:16.675Z,39
2022-08-01T06:51:16.676Z,40
2022-08-01T06:52:16.676Z,45
2022-08-01T06:53:16.677Z,47
2022-08-01T06:54:16.699Z,50
2022-08-01T06:55:16.700Z,43
2022-08-01T06:56:16.700Z,43
2022-08-01T06:57:16.701Z,47
2022-08-01T06:58:16.701Z,49
2022-08-01T06:59:16.702Z,41
2022-08-01T07:00:16.703Z,43
2022-08-01T07:01:16.703Z,41
2022-08-01T07:02:16.703Z,36
2022-08-01T07:03:16.681Z,39
2022-08-01T07:04:16.682Z,40
2022-08-01T07:05:16.682Z,39
2022-08-01T07:06:16.683Z,40
2022-08-01T07:07:16.683Z,41
2022-08-01T07:08:16.684Z,38
2022-08-01T07:09:16.707Z,45
2022-08-01T07:10:16.707Z,40
2022-08-01T07:11:16.707Z,39
2022-08-01T07:12:16.708Z,49
2022-08-01T07:13:16.709Z,43
2022-08-01T07:14:16.709Z,43
2022-08-01T07:15:16.710Z,46
2022-08-01T07:16:16.710Z,43
2022-08-01T07:17:16.711Z,41
2022-08-01T07:18:16.736Z,38
2022-08-01T07:19:16.689Z,41
2022-08-01T07:20:16.690Z,40
2022-08-01T07:21:16.690Z,35
2022-08-01T07:22:16.691Z,32
2022-08-01T07:23:16.691Z,25
2022-08-01T07:24:16.714Z,29
2022-08-01T07:25:16.714Z,38
2022-08-01T07:26:16.715Z,36
2022-08-01T07:27:16.724Z,38
2022-08-01T07:28:16.716Z,36
2022-08-01T07:29:16.717Z,34
2022-08-01T07:30:16.717Z,42
2022-08-01T07:31:16.718Z,37
2022-08-01T07:32:16.718Z,34
2022-08-01T07:33:16.719Z,36
2022-08-01T07:34:16.696Z,36
2022-08-01T07:35:16.697Z,38
2022-08-01T07:36:16.697Z,40
2022-08-01T07:37:16.698Z,42
2022-08-01T07:38:16.698Z,34
2022-08-01T07:39:16.699Z,34
2022-08-01T07:40:16.722Z,38
2022-08-01T07:41:16.722Z,33
2022-08-01T07:42:16.723Z,36
2022-08-01T07:43:16.723Z,37
2022-08-01T07:44:16.724Z,36
2022-08-01T07:45:16.749Z,39
2022-08-01T07:46:16.725Z,39
2022-08-01T07:47:16.725Z,40
2022-08-01T07:48:16.727Z,46
2022-08-01T07:49:16.704Z,46
2022-08-01T07:50:16.704Z,46
2022-08-01T07:51:16.705Z,49
2022-08-01T07:52:16.705Z,42
2022-08-01T07:53:16.706Z,55
2022-08-01T07:54:16.706Z,56
2022-08-01T07:55:16.729Z,51
2022-08-01T07:56:16.730Z,47
2022-08-01T07:57:16.730Z,53
2022-08-01T07:58:16.731Z,53
2022-08-01T07:59:16.732Z,50
2022-08-01T08:00:16.732Z,59
2022-08-01T08:01:16.732Z,55
2022-08-01T08:02:16.733Z,52
2022-08-01T08:03:16.734Z,58
2022-08-01T08:04:16.711Z,57
2022-08-01T08:05:16.712Z,66
2022-08-01T08:06:16.712Z,55
2022-08-01T08:07:16.713Z,47
2022-08-01T08:08:16.713Z,54
2022-08-01T08:09:16.714Z,54
2022-08-01T08:10:16.737Z,57
2022-08-01T08:11:16.737Z,64
2022-08-01T08:12:16.738Z,55
2022-08-01T08:13:16.738Z,60
2022-08-01T08:14:16.739Z,59
2022-08-01T08:15:16.739Z,60
2022-08-01T08:16:16.740Z,55
2022-08-01T08:17:16.741Z,53
2022-08-01T08:18:16.741Z,49
2022-08-01T08:19:16.719Z,50
2022-08-01T08:20:16.720Z,44
2022-08-01T08:21:16.720Z,50
2022-08-01T08:22:16.721Z,53
2022-08-01T08:23:16.721Z,53
2022-08-01T08:24:16.722Z,62
2022-08-01T08:25:16.744Z,68
2022-08-01T08:26:16.745Z,64
2022-08-01T08:27:16.745Z,62
2022-08-01T08:28:16.746Z,53
2022-08-01T08:29:16.747Z,51
2022-08-01T08:30:16.747Z,64
2022-08-01T08:31:16.812Z,63
2022-08-01T08:32:16.749Z,59
2022-08-01T08:33:16.749Z,69
2022-08-01T08:34:16.750Z,72
2022-08-01T08:35:16.727Z,70
2022-08-01T08:36:16.728Z,66
2022-08-01T08:37:16.729Z,63
2022-08-01T08:38:16.729Z,60
2022-08-01T08:39:16.730Z,62
2022-08-01T08:40:16.752Z,57
2022-08-01T08:41:16.753Z,58
2022-08-01T08:42:16.754Z,60
2022-08-01T08:43:16.754Z,69
2022-08-01T08:44:16.755Z,71
2022-08-01T08:45:16.755Z,66
2022-08-01T08:46:16.772Z,61
2022-08-01T08:47:16.756Z,65
2022-08-01T08:48:16.757Z,57
2022-08-01T08:49:16.758Z,56
2022-08-01T08:50:16.736Z,52
2022-08-01T08:51:16.736Z,56
2022-08-01T08:52:16.737Z,68
2022-08-01T08:53:16.737Z,54
2022-08-01T08:54:16.738Z,71
2022-08-01T08:55:16.738Z,83
2022-08-01T08:56:16.761Z,83
2022-08-01T08:57:16.761Z,66
2022-08-01T08:58:16.762Z,56
2022-08-01T08:59:16.763Z,54
2022-08-01T09:00:16.763Z,64
2022-08-01T09:01:16.764Z,58
2022-08-01T09:02:16.765Z,58
2022-08-01T09:03:16.765Z,60
2022-08-01T09:04:16.766Z,67
2022-08-01T09:05:16.744Z,72
2022-08-01T09:06:16.744Z,56
2022-08-01T09:07:16.745Z,64
2022-08-01T09:08:16.745Z,79
2022-08-01T09:09:16.746Z,63
2022-08-01T09:10:16.746Z,61
2022-08-01T09:11:16.769Z,61
2022-08-01T09:12:16.770Z,65
2022-08-01T09:13:16.770Z,65
2022-08-01T09:14:16.771Z,58
2022-08-01T09:15:16.771Z,48
2022-08-01T09:16:16.772Z,46
2022-08-01T09:17:16.773Z,50
2022-08-01T09:18:16.773Z,56
2022-08-01T09:19:16.774Z,52
2022-08-01T09:20:16.752Z,56
2022-08-01T09:21:16.752Z,63
2022-08-01T09:22:16.753Z,66
2022-08-01T09:23:16.753Z,59
2022-08-01T09:24:16.754Z,54
2022-08-01T09:25:16.754Z,50
2022-08-01T09:26:16.778Z,49
2022-08-01T09:27:16.778Z,62
2022-08-01T09:28:16.778Z,54
2022-08-01T09:29:16.779Z,57
2022-08-01T09:30:16.780Z,58
2022-08-01T09:31:16.780Z,56
2022-08-01T09:32:16.845Z,58
2022-08-01T09:33:16.782Z,65
2022-08-01T09:34:16.782Z,59
2022-08-01T09:35:16.783Z,52
2022-08-01T09:36:16.761Z,48
2022-08-01T09:37:16.761Z,48
2022-08-01T09:38:16.762Z,48
2022-08-01T09:39:16.762Z,49
2022-08-01T09:40:16.763Z,47
2022-08-01T09:41:16.786Z,40
2022-08-01T09:42:16.786Z,50
2022-08-01T09:43:16.787Z,47
2022-08-01T09:44:16.787Z,50
2022-08-01T09:45:16.788Z,60
2022-08-01T09:46:16.788Z,50
2022-08-01T09:47:16.814Z,63
2022-08-01T09:48:16.790Z,62
2022-08-01T09:49:16.791Z,58
2022-08-01T09:50:16.791Z,51
2022-08-01T09:51:16.769Z,55
2022-08-01T09:52:16.769Z,59
2022-08-01T09:53:16.770Z,56
2022-08-01T09:54:16.771Z,55
2022-08-01T09:55:16.771Z,44
2022-08-01T09:56:16.772Z,43
2022-08-01T09:57:16.795Z,48
2022-08-01T09:58:16.795Z,47
2022-08-01T09:59:16.796Z,57
2022-08-01T10:00:16.796Z,66
2022-08-01T10:01:16.797Z,63
2022-08-01T10:02:16.798Z,46
2022-08-01T10:03:16.798Z,43
2022-08-01T10:04:16.799Z,51
2022-08-01T10:05:16.799Z,41
2022-08-01T10:06:16.777Z,46
2022-08-01T10:07:16.778Z,50
2022-08-01T10:08:16.778Z,55
2022-08-01T10:09:16.779Z,52
2022-08-01T10:10:16.779Z,57
2022-08-01T10:11:16.780Z,64
2022-08-01T10:12:16.803Z,56
2022-08-01T10:13:16.804Z,58
2022-08-01T10:15:16.805Z,63
2022-08-01T10:16:16.805Z,56
2022-08-01T10:17:16.806Z,60
2022-08-01T10:18:16.807Z,64
2022-08-01T10:19:16.807Z,62
2022-08-01T10:20:16.808Z,73
2022-08-01T10:21:16.786Z,72
2022-08-01T10:22:16.786Z,77
2022-08-01T10:23:16.787Z,67
2022-08-01T10:24:16.787Z,71
2022-08-01T10:25:16.788Z,67
2022-08-01T10:26:16.789Z,67
2022-08-01T10:27:16.811Z,76
2022-08-01T10:28:16.812Z,68
2022-08-01T10:29:16.813Z,68
2022-08-01T10:30:16.813Z,74
2022-08-01T10:31:16.814Z,70
2022-08-01T10:32:16.814Z,57
2022-08-01T10:33:16.880Z,62
2022-08-01T10:34:16.816Z,70
2022-08-01T10:35:16.816Z,66
2022-08-01T10:36:16.818Z,64
2022-08-01T10:37:17.619Z,57
2022-08-01T10:38:16.795Z,66
2022-08-01T10:39:16.818Z,74
2022-08-01T10:40:16.797Z,65
2022-08-01T10:41:16.797Z,71
2022-08-01T10:42:16.821Z,61
2022-08-01T10:43:16.821Z,68
2022-08-01T10:44:16.821Z,68
2022-08-01T10:45:16.822Z,73
2022-08-01T10:46:16.822Z,71
2022-08-01T10:47:16.823Z,68
2022-08-01T10:48:16.824Z,69
2022-08-01T10:49:16.824Z,63
2022-08-01T10:50:16.825Z,58
2022-08-01T10:51:16.825Z,53
2022-08-01T10:52:16.803Z,70
2022-08-01T10:53:16.804Z,63
2022-08-01T10:54:16.804Z,64
2022-08-01T10:55:16.805Z,56
2022-08-01T10:56:16.806Z,54
2022-08-01T10:57:16.806Z,59
2022-08-01T10:58:16.829Z,70
2022-08-01T10:59:16.830Z,60
2022-08-01T11:00:16.830Z,63
2022-08-01T11:01:16.831Z,63
2022-08-01T11:02:16.831Z,70
2022-08-01T11:03:16.832Z,75
2022-08-01T11:04:16.833Z,77
2022-08-01T11:05:16.833Z,76
2022-08-01T11:06:16.834Z,75
2022-08-01T11:07:16.812Z,76
2022-08-01T11:08:16.812Z,77
2022-08-01T11:09:16.813Z,75
2022-08-01T11:10:16.814Z,60
2022-08-01T11:11:16.814Z,67
2022-08-01T11:12:16.815Z,75
2022-08-01T11:13:16.838Z,73
2022-08-01T11:14:16.838Z,57
2022-08-01T11:15:16.839Z,65
2022-08-01T11:16:16.839Z,74
2022-08-01T11:17:16.840Z,72
2022-08-01T11:18:16.841Z,70
2022-08-01T11:19:16.841Z,70
2022-08-01T11:20:16.842Z,75
2022-08-01T11:21:16.842Z,61
2022-08-01T11:22:16.908Z,81
2022-08-01T11:23:16.821Z,84
2022-08-01T11:24:16.822Z,74
2022-08-01T11:25:16.844Z,80
2022-08-01T11:26:16.823Z,78
2022-08-01T11:27:16.823Z,73
2022-08-01T11:28:16.847Z,74
2022-08-01T11:29:16.847Z,79
2022-08-01T11:30:16.847Z,72
2022-08-01T11:31:16.848Z,73
2022-08-01T11:32:16.848Z,69
2022-08-01T11:33:16.849Z,74
2022-08-01T11:34:16.850Z,76
2022-08-01T11:35:16.850Z,61
2022-08-01T11:36:16.851Z,71
2022-08-01T11:37:16.852Z,70
2022-08-01T11:38:16.829Z,61
2022-08-01T11:39:16.830Z,61
2022-08-01T11:40:16.831Z,62
2022-08-01T11:41:16.831Z,75
2022-08-01T11:42:16.832Z,72
2022-08-01T11:43:16.832Z,63
2022-08-01T11:44:16.855Z,67
2022-08-01T11:45:16.856Z,71
2022-08-01T11:46:16.856Z,71
2022-08-01T11:47:16.857Z,64
2022-08-01T11:48:16.858Z,70
2022-08-01T11:49:16.859Z,65
2022-08-01T11:50:16.859Z,72
2022-08-01T11:51:16.859Z,76
2022-08-01T11:52:16.860Z,69
2022-08-01T11:53:16.838Z,65
2022-08-01T11:54:16.839Z,69
2022-08-01T11:55:16.839Z,72
2022-08-01T11:56:16.840Z,69
2022-08-01T11:57:16.841Z,74
2022-08-01T11:58:16.841Z,84
2022-08-01T11:59:16.864Z,76
2022-08-01T12:00:16.864Z,81
2022-08-01T12:01:16.865Z,66
2022-08-01T12:02:16.866Z,71
2022-08-01T12:03:16.866Z,68
2022-08-01T12:04:16.867Z,64
2022-08-01T12:05:16.868Z,62
2022-08-01T12:06:16.869Z,59
2022-08-01T12:07:16.869Z,62
2022-08-01T12:08:16.847Z,61
2022-08-01T12:09:16.847Z,57
2022-08-01T12:10:16.848Z,55
2022-08-01T12:11:16.848Z,65
2022-08-01T12:12:16.849Z,60
2022-08-01T12:13:16.850Z,67
2022-08-01T12:14:16.872Z,62
2022-08-01T12:15:16.873Z,60
2022-08-01T12:16:16.874Z,73
2022-08-01T12:17:16.874Z,63
2022-08-01T12:18:16.875Z,57
2022-08-01T12:19:16.875Z,62
2022-08-01T12:20:16.893Z,67
2022-08-01T12:21:16.877Z,53
2022-08-01T12:22:16.877Z,55
2022-08-01T12:23:16.879Z,55
2022-08-01T12:24:16.856Z,44
2022-08-01T12:25:16.856Z,47
2022-08-01T12:26:16.857Z,50
2022-08-01T12:27:16.858Z,48
2022-08-01T12:28:16.858Z,63
2022-08-01T12:29:16.859Z,64
2022-08-01T12:30:16.882Z,58
2022-08-01T12:31:16.882Z,55
2022-08-01T12:32:16.883Z,56
2022-08-01T12:33:16.884Z,61
2022-08-01T12:34:16.884Z,67
2022-08-01T12:35:16.885Z,71
2022-08-01T12:36:16.885Z,68
2022-08-01T12:37:16.886Z,63
2022-08-01T12:38:16.927Z,62
2022-08-01T12:39:16.864Z,58
2022-08-01T12:40:16.865Z,55
2022-08-01T12:41:16.866Z,57
2022-08-01T12:42:16.866Z,54
2022-08-01T12:43:16.867Z,58
2022-08-01T12:44:16.867Z,62
2022-08-01T12:45:16.890Z,71
2022-08-01T12:46:16.891Z,69
2022-08-01T12:47:16.891Z,67
2022-08-01T12:48:16.892Z,56
2022-08-01T12:49:16.893Z,55
2022-08-01T12:50:16.893Z,66
2022-08-01T12:51:16.894Z,66
2022-08-01T12:52:16.894Z,51
2022-08-01T12:53:16.920Z,49
2022-08-01T12:54:16.873Z,54
2022-08-01T12:55:16.874Z,72
2022-08-01T12:56:16.874Z,63
2022-08-01T12:57:16.875Z,63
2022-08-01T12:58:16.876Z,68
2022-08-01T12:59:16.899Z,60
2022-08-01T13:00:16.899Z,66
2022-08-01T13:01:16.900Z,69
2022-08-01T13:02:16.940Z,55
2022-08-01T13:03:16.901Z,60
2022-08-01T13:04:16.901Z,68
2022-08-01T13:05:16.902Z,65
2022-08-01T13:06:16.903Z,63
2022-08-01T13:07:16.903Z,77
2022-08-01T13:08:16.904Z,71
2022-08-01T13:09:16.882Z,60
2022-08-01T13:10:16.883Z,62
2022-08-01T13:11:16.883Z,56
2022-08-01T13:12:16.884Z,64
2022-08-01T13:13:16.884Z,71
2022-08-01T13:14:16.885Z,67
2022-08-01T13:15:16.908Z,69
2022-08-01T13:16:16.908Z,67
2022-08-01T13:17:16.909Z,69
2022-08-01T13:18:16.910Z,72
2022-08-01T13:19:16.910Z,66
2022-08-01T13:20:16.911Z,63
2022-08-01T13:21:16.911Z,67
2022-08-01T13:22:16.912Z,67
2022-08-01T13:23:16.913Z,74
2022-08-01T13:24:16.891Z,78
2022-08-01T13:25:16.891Z,75
2022-08-01T13:26:16.892Z,75
2022-08-01T13:27:16.893Z,83
2022-08-01T13:28:16.893Z,75
2022-08-01T13:29:16.894Z,77
2022-08-01T13:30:16.917Z,76
2022-08-01T13:31:16.917Z,80
2022-08-01T13:32:16.918Z,75
2022-08-01T13:33:16.918Z,70
2022-08-01T13:34:16.919Z,67
2022-08-01T13:35:16.920Z,67
2022-08-01T13:36:16.920Z,71
2022-08-01T13:37:16.921Z,70
2022-08-01T13:38:16.921Z,60
2022-08-01T13:39:16.963Z,56
2022-08-01T13:40:16.900Z,44
2022-08-01T13:41:16.901Z,64
2022-08-01T13:42:16.901Z,68
2022-08-01T13:43:16.902Z,54
2022-08-01T13:44:16.903Z,70
2022-08-01T13:45:16.903Z,64
2022-08-01T13:46:16.926Z,62
2022-08-01T13:47:16.927Z,66
2022-08-01T13:48:16.927Z,64
2022-08-01T13:49:16.928Z,48
2022-08-01T13:50:16.928Z,53
2022-08-01T13:51:16.954Z,55
2022-08-01T13:52:16.930Z,59
2022-08-01T13:53:16.930Z,54
2022-08-01T13:54:16.932Z,54
2022-08-01T13:55:16.909Z,61
2022-08-01T13:56:16.910Z,67
2022-08-01T13:57:16.910Z,64
2022-08-01T13:58:16.911Z,63
2022-08-01T13:59:16.911Z,69
2022-08-01T14:00:16.912Z,78
2022-08-01T14:01:16.935Z,67
2022-08-01T14:02:16.935Z,69
2022-08-01T14:03:16.936Z,66
2022-08-01T14:04:16.937Z,60
2022-08-01T14:05:16.937Z,57
2022-08-01T14:06:16.938Z,56
2022-08-01T14:07:16.938Z,62
2022-08-01T14:08:16.939Z,62
2022-08-01T14:09:16.940Z,63
2022-08-01T14:10:16.918Z,60
2022-08-01T14:11:16.918Z,69
2022-08-01T14:12:16.919Z,58
2022-08-01T14:13:16.919Z,62
2022-08-01T14:14:16.920Z,53
2022-08-01T14:15:16.920Z,67
2022-08-01T14:16:16.943Z,54
2022-08-01T14:17:16.944Z,59
2022-08-01T14:18:16.944Z,65
2022-08-01T14:19:16.945Z,66
2022-08-01T14:20:16.946Z,72
2022-08-01T14:21:16.946Z,73